• Join FlightAware (Why Join?)
  • Login
  • US Flag 
02:11PM EST


 

Airport Tracker/Info


-or-


 

Live Flight TrackerFlight Track Log ✈ CMP807 ✈ 25-Mar-2014 ✈ KJFK - MPTO / PTY

Flight Track Log - Related Links

Times and Time Zones

All times are in EDT time to prevent confusion due to time zone crossing. See the CMP807 flight status page for this flight to view local times or setup timezone preferences in your user account.

Time Position Orientation Groundspeed Altitude Reporting Facility
EDT Latitude Longitude Course Direction KTS MPH feet Rate Location/Type
02:27AM 40.4446 -73.5946 143° Southeast  Level FlightAware Approximate
02:27AM 40.6447 -73.6731 223° Southwest 189 217 2,700  Level New York Center
02:28AM 40.3435 -73.5101 143° Southeast  Level FlightAware Approximate
02:28AM 40.5853 -73.6403 157° South 216 249 4,900  Level New York Center
02:29AM 40.2558 -73.4116 123° Southeast  Level FlightAware Approximate
02:29AM 40.5094 -73.5881 152° Southeast 264 304 7,500  Level New York Center
02:30AM 40.1578 -73.3161 146° Southeast  Level FlightAware Approximate
02:31AM 40.0592 -73.2790 223° Southwest  Level FlightAware Approximate
02:31AM 40.3581 -73.5253 162° South 289 333 11,200  Level Washington Center
02:36AM 40.0592 -73.6841 202° Southwest 377 434 23,700 2,600 Climbing FlightAware ADS-B (KPHL)
02:37AM 39.9611 -73.7351 202° Southwest 399 459 29,100 2,096 Climbing FlightAware ADS-B
02:39AM 39.7223 -73.8584 202° Southwest 396 456 29,500 1,166 Climbing FlightAware ADS-B (KPHL)
02:41AM 39.3231 -74.1145 220° Southwest 367 422 33,200 1,528 Climbing FlightAware ADS-B (KPHL)
02:41AM 39.2965 -74.1390 211° Southwest 375 432 33,600 1,500 Climbing FlightAware ADS-B (KWWD)
02:41AM 39.2776 -74.1517 206° Southwest 376 433 33,900 1,333 Climbing FlightAware ADS-B (KWWD)
02:42AM 39.2681 -74.1570 202° Southwest 382 440 34,000 1,021 Climbing FlightAware ADS-B (KWWD)
02:42AM 39.2003 -74.1910 201° Southwest 391 450 34,700 833 Climbing FlightAware ADS-B (KPHL)
02:43AM 39.1493 -74.2169 202° Southwest 400 460 35,000 590 Climbing FlightAware ADS-B (KPHL)
02:43AM 39.0967 -74.2434 201° Southwest 405 466 35,300 787 Climbing FlightAware ADS-B (KPHL)
02:44AM 39.0427 -74.2704 201° Southwest 405 466 35,800 1,313 Climbing FlightAware ADS-B (KPHL)
02:44AM 38.9842 -74.2998 201° Southwest 394 453 36,700 1,538 Climbing FlightAware ADS-B (KWWD)
02:44AM 38.9729 -74.3055 202° Southwest 384 442 36,800 1,610 Climbing FlightAware ADS-B (KWWD)
02:45AM 38.9150 -74.3347 202° Southwest 381 438 37,800 947 Climbing FlightAware ADS-B (KWWD)
02:46AM 38.8484 -74.3683 201° Southwest 384 442 38,000 136 Climbing FlightAware ADS-B (KWWD)
02:46AM 38.7699 -74.4069 202° Southwest 383 441 38,000  Level FlightAware ADS-B (KWWD)
02:47AM 38.7136 -74.4347 202° Southwest 385 443 38,000  Level FlightAware ADS-B (KWWD)
02:48AM 38.6529 -74.4644 201° Southwest 393 452 38,000  Level FlightAware ADS-B (KWWD)
02:48AM 38.5965 -74.4922 201° Southwest 394 453 38,000  Level FlightAware ADS-B (KWWD)
02:49AM 38.5454 -74.5175 201° Southwest 394 453 38,000  Level FlightAware ADS-B (KWWD)
02:49AM 38.4792 -74.5499 201° Southwest 396 456 38,000  Level FlightAware ADS-B
02:50AM 38.4287 -74.5746 201° Southwest 397 457 38,000  Level FlightAware ADS-B
02:52AM 38.2457 -74.6638 201° Southwest 400 460 38,000  Level FlightAware ADS-B (KWWD)
02:52AM 38.1713 -74.7001 201° Southwest 400 460 38,000  Level FlightAware ADS-B (KWWD)
02:53AM 38.1177 -74.7260 201° Southwest 394 453 38,000 -76 Level FlightAware ADS-B (KWWD)
02:54AM 38.0431 -74.7639 201° Southwest 400 460 37,900  Descending Washington Center
02:55AM 37.9411 -74.8178 203° Southwest 400 460 38,000 50 Climbing Washington Center
02:56AM 37.8392 -74.8661 201° Southwest 400 460 38,000 -51 Level Washington Center
02:57AM 37.7375 -74.9144 201° Southwest 400 460 37,900  Descending Washington Center
02:58AM 37.6353 -74.9597 199° South 395 455 38,000  Climbing Washington Center
02:59AM 37.5375 -75.0078 201° Southwest 390 449 37,900  Descending Washington Center
03:00AM 37.4397 -75.0556 201° Southwest 390 449 38,000 50 Climbing Washington Center
03:01AM 37.3442 -75.1008 201° Southwest 385 443 38,000  Level Washington Center
03:02AM 37.2442 -75.1458 200° South 385 443 38,000  Level Washington Center
03:03AM 37.1464 -75.1906 200° South 385 443 38,000 -50 Level Washington Center
03:04AM 37.0506 -75.2381 202° Southwest 385 443 37,900  Descending Washington Center
03:05AM 36.9547 -75.2825 200° South 380 437 38,000 49 Climbing Washington Center
03:06AM 36.8567 -75.3272 200° South 380 437 38,000 -50 Level Washington Center
03:07AM 36.7586 -75.3717 200° South 380 437 37,900  Descending Washington Center
03:08AM 36.6608 -75.4183 201° Southwest 380 437 38,000  Climbing Washington Center
03:09AM 36.5647 -75.4628 200° South 375 432 37,900  Descending Washington Center
03:10AM 36.4689 -75.5094 201° Southwest 375 432 38,000 50 Climbing Washington Center
03:11AM 36.3708 -75.5506 199° South 375 432 38,000  Level Washington Center
03:12AM 36.2728 -75.5972 201° Southwest 375 432 38,000 -49 Level Washington Center
03:13AM 36.1831 -75.6383 200° South 375 432 37,900  Descending Washington Center
03:14AM 36.0872 -75.6819 200° South 375 432 38,000 50 Climbing Washington Center
03:15AM 35.9869 -75.7256 199° South 375 432 38,000  Level Washington Center
03:16AM 35.8867 -75.7714 200° South 380 437 38,000  Level Washington Center
03:17AM 35.7864 -75.8175 200° South 380 437 38,000  Level Washington Center
03:18AM 35.6861 -75.8631 200° South 385 443 38,000 -50 Level Washington Center
03:19AM 35.5839 -75.9089 200° South 392 451 37,900 -49 Descending Washington Center
03:20AM 35.4858 -75.9544 201° Southwest 387 445 37,900 51 Level Washington Center
03:21AM 35.3853 -75.9972 199° South 387 445 38,000 50 Climbing Washington Center
03:22AM 35.2850 -76.0450 201° Southwest 387 445 38,000  Level Washington Center
03:23AM 35.1889 -76.0825 198° South 387 445 38,000  Level Washington Center
03:24AM 35.0781 -76.1378 202° Southwest 387 445 38,000 -50 Level Washington Center
03:25AM 34.9819 -76.1803 200° South 387 445 37,900 -50 Descending Washington Center
03:26AM 34.8858 -76.2225 200° South 381 438 37,900 50 Level Washington Center
03:27AM 34.7917 -76.2675 201° Southwest 371 427 38,000 49 Climbing Washington Center
03:28AM 34.6953 -76.3094 200° South 371 427 38,000  Level Washington Center
03:29AM 34.5950 -76.3517 199° South 378 435 38,000  Level Washington Center
03:30AM 34.4947 -76.3936 199° South 378 435 38,000  Level Washington Center
03:31AM 34.4025 -76.4378 202° Southwest 373 429 38,000 -51 Level Washington Center
03:32AM 34.3000 -76.4772 198° South 373 429 37,900  Descending Washington Center
03:33AM 34.2036 -76.5211 201° Southwest 373 429 38,000 50 Climbing Washington Center
03:34AM 34.1075 -76.5603 199° South 373 429 38,000  Level Washington Center
03:35AM 34.0153 -76.6042 202° Southwest 373 429 38,000  Level Washington Center
03:36AM 33.9189 -76.6456 200° South 373 429 38,000  Level Washington Center
03:37AM 33.8225 -76.6869 200° South 373 429 38,000  Level Washington Center
03:38AM 33.7264 -76.7256 198° South 373 429 38,000  Level Washington Center
03:40AM 33.5333 -76.8083 200° South 363 418 38,000  Level Jacksonville Center
03:41AM 33.4353 -76.8525 201° Southwest 370 426 38,000 -50 Level Jacksonville Center
03:42AM 33.3472 -76.8883 199° South 375 432 37,900 -50 Descending Jacksonville Center
03:43AM 33.2408 -76.9353 200° South 388 447 37,900 50 Level Jacksonville Center
03:44AM 33.1406 -76.9767 199° South 388 447 38,000  Climbing Jacksonville Center
03:45AM 33.0383 -77.0231 201° Southwest 388 447 37,900 -50 Descending Jacksonville Center
03:46AM 32.9381 -77.0642 199° South 393 452 37,900  Level Jacksonville Center
03:47AM 32.8358 -77.1078 200° South 393 452 37,900  Level Jacksonville Center
03:48AM 32.7353 -77.1464 198° South 393 452 37,900 50 Level Jacksonville Center
03:49AM 32.6369 -77.1897 200° South 382 440 38,000 50 Climbing Jacksonville Center
03:50AM 32.5367 -77.2328 200° South 377 434 38,000  Level Jacksonville Center
03:51AM 32.4364 -77.2761 200° South 377 434 38,000 -50 Level Jacksonville Center
03:52AM 32.3381 -77.3142 198° South 377 434 37,900 -50 Descending Jacksonville Center
03:53AM 32.2372 -77.3522 198° South 382 440 37,900 50 Level Jacksonville Center
03:54AM 32.1369 -77.3975 201° Southwest 376 433 38,000  Climbing Jacksonville Center
03:55AM 32.0367 -77.4378 199° South 377 434 37,900  Descending Jacksonville Center
03:56AM 31.9403 -77.4778 199° South 377 434 38,000 50 Climbing Jacksonville Center
03:57AM 31.8397 -77.5178 199° South 377 434 38,000  Level Jacksonville Center
03:58AM 31.7392 -77.5603 200° South 383 441 38,000  Level Jacksonville Center
03:59AM 31.6386 -77.6003 199° South 377 434 38,000  Level Jacksonville Center
04:00AM 31.5381 -77.6425 200° South 382 440 38,000 -50 Level Jacksonville Center
04:01AM 31.4350 -77.6775 196° South 382 440 37,900 -50 Descending Jacksonville Center
04:02AM 31.3347 -77.7269 203° Southwest 382 440 37,900  Level Jacksonville Center
04:03AM 31.2322 -77.7692 199° South 387 445 37,900  Level Jacksonville Center
04:04AM 31.1292 -77.8039 196° South 387 445 37,900 50 Level Jacksonville Center
04:05AM 31.0289 -77.8528 203° Southwest 387 445 38,000 50 Climbing Jacksonville Center
04:06AM 30.9278 -77.8825 194° South 379 436 38,000 -50 Level Jacksonville Center
04:07AM 30.8253 -77.9267 200° South 384 442 37,900  Descending Jacksonville Center
04:08AM 30.6425 -78.0053 200° South 381 438 38,000 37 Climbing Miami Center
04:09AM 30.5381 -78.0478 199° South 393 452 38,000  Level Miami Center
04:10AM 30.4419 -78.0922 202° Southwest 404 465 38,000 -50 Level Miami Center
04:11AM 30.3311 -78.1175 191° South 404 465 37,900 -51 Descending Miami Center
04:12AM 30.2286 -78.1544 197° South 394 453 37,900  Level Miami Center
04:13AM 30.1219 -78.1942 198° South 382 440 37,900  Level Miami Center
04:14AM 30.0361 -78.2339 202° Southwest 375 432 37,900  Level Miami Center
04:15AM 29.9544 -78.2781 205° Southwest 364 419 37,900  Level Miami Center
04:16AM 29.8725 -78.3322 210° Southwest 358 412 37,900  Level Miami Center
04:17AM 29.7742 -78.3714 199° South 359 413 37,900  Level Miami Center
04:18AM 29.6839 -78.4156 203° Southwest 359 413 37,900  Level Miami Center
04:19AM 29.5792 -78.4475 195° South 364 419 37,900 14 Level Miami Center
04:25AM 28.8608 -78.5314 186° South 424 488 38,000 10 Climbing FlightAware ADS-B
04:29AM 28.4025 -78.5843 186° South 433 498 38,000  Level FlightAware ADS-B
04:30AM 28.3224 -78.5933 186° South 434 499 38,000  Level FlightAware ADS-B
04:31AM 28.2335 -78.6035 186° South 438 504 38,000  Level FlightAware ADS-B
04:31AM 28.1599 -78.6119 186° South 437 503 38,000  Level FlightAware ADS-B
04:32AM 28.0907 -78.6198 186° South 438 504 38,000  Level FlightAware ADS-B
04:33AM 28.0101 -78.6290 186° South 438 504 38,000  Level FlightAware ADS-B
04:33AM 27.9481 -78.6360 186° South 438 504 38,000  Level FlightAware ADS-B
04:34AM 27.8579 -78.6463 186° South 437 503 38,000  Level FlightAware ADS-B
04:35AM 27.7471 -78.6590 185° South 436 502 38,000  Level FlightAware ADS-B
04:35AM 27.7274 -78.6612 185° South 436 502 38,000  Level FlightAware ADS-B
04:35AM 27.6836 -78.6661 186° South 436 502 38,000  Level FlightAware ADS-B
04:36AM 27.6065 -78.6750 186° South 435 501 38,000  Level FlightAware ADS-B
04:37AM 27.5188 -78.6848 186° South 436 502 38,000  Level FlightAware ADS-B
04:37AM 27.4403 -78.6938 186° South 435 501 38,000  Level FlightAware ADS-B
04:38AM 27.3778 -78.7009 186° South 435 501 38,000  Level FlightAware ADS-B
04:38AM 27.2966 -78.7101 186° South 437 503 38,000  Level FlightAware ADS-B
04:39AM 27.2138 -78.7190 186° South 438 504 38,000  Level FlightAware ADS-B
04:40AM 27.1547 -78.7255 186° South 437 503 38,000  Level FlightAware ADS-B
04:40AM 27.0936 -78.7325 186° South 437 503 38,000  Level FlightAware ADS-B
04:41AM 27.0142 -78.7416 186° South 439 505 38,000  Level FlightAware ADS-B
04:41AM 26.9321 -78.7505 185° South 443 510 38,000  Level FlightAware ADS-B
04:42AM 26.8709 -78.7573 186° South 444 511 38,000  Level FlightAware ADS-B
04:42AM 26.8113 -78.7639 186° South 447 514 38,000  Level FlightAware ADS-B
04:43AM 26.7451 -78.7715 186° South 452 520 38,000  Level FlightAware ADS-B
04:44AM 26.6623 -78.7807 186° South 452 520 38,000  Level FlightAware ADS-B
04:46AM 26.3790 -78.8121 186° South 452 520 38,000  Level FlightAware ADS-B
04:46AM 26.2944 -78.8214 185° South 452 520 38,000  Level FlightAware ADS-B
04:47AM 26.2165 -78.8299 185° South 451 519 38,000  Level FlightAware ADS-B
04:48AM 26.1320 -78.8393 185° South 450 518 38,000 441 Level FlightAware ADS-B
04:48AM 26.0692 -78.8462 185° South 448 516 38,500 723 Climbing FlightAware ADS-B
04:49AM 25.9653 -78.8576 185° South 446 513 39,000 323 Climbing FlightAware ADS-B
04:50AM 25.8838 -78.8667 185° South 447 514 39,000  Level FlightAware ADS-B
04:50AM 25.8000 -78.8758 185° South 448 516 39,000  Level FlightAware ADS-B
04:51AM 25.7237 -78.8842 185° South 449 517 39,000  Level FlightAware ADS-B
04:52AM 25.6500 -78.8921 185° South 450 518 39,000  Level FlightAware ADS-B
04:52AM 25.5726 -78.9006 185° South 450 518 39,000  Level FlightAware ADS-B
04:53AM 25.4952 -78.9089 185° South 452 520 39,000  Level FlightAware ADS-B
04:53AM 25.4275 -78.9164 185° South 453 521 39,000  Level FlightAware ADS-B
04:54AM 25.3636 -78.9264 185° South 444 511 39,000  Level Miami Center
04:55AM 25.2381 -78.9403 186° South 456 525 39,000  Level Miami Center
04:56AM 25.1083 -78.9519 185° South 461 531 39,000  Level Miami Center
04:57AM 24.9786 -78.9633 185° South 469 540 39,000  Level Miami Center
04:58AM 24.8531 -78.9772 186° South 469 540 39,000  Level Miami Center
04:59AM 24.7253 -78.9911 186° South 459 528 39,000  Level Miami Center
05:00AM 24.5936 -79.0003 184° South 464 534 39,000  Level Miami Center
05:01AM 24.4661 -79.0050 182° South 470 541 39,000  Level Miami Center
05:02AM 24.3344 -79.0094 182° South 465 535 39,000  Level Miami Center
05:03AM 24.1964 -79.0164 183° South 465 535 39,000  Level Miami Center
05:04AM 24.0689 -79.0164 180° South 454 522 39,000 -77 Level Miami Center
05:06AM 23.9262 -79.0691 182° South  Level FlightAware Approximate
05:13AM 23.1137 -79.0962 182° South  Level FlightAware Approximate
05:14AM 22.9977 -79.1001 181° South  Level FlightAware Approximate
05:15AM 22.8816 -79.1032 181° South  Level FlightAware Approximate
05:16AM 22.7655 -79.1063 181° South  Level FlightAware Approximate
05:17AM 22.6494 -79.1094 181° South  Level FlightAware Approximate
05:18AM 22.5333 -79.1125 181° South  Level FlightAware Approximate
05:19AM 22.4172 -79.1156 181° South  Level FlightAware Approximate
05:20AM 22.3011 -79.1187 181° South  Level FlightAware Approximate
05:21AM 22.1850 -79.1218 181° South  Level FlightAware Approximate
05:22AM 22.0689 -79.1249 181° South  Level FlightAware Approximate
05:23AM 21.9529 -79.1280 181° South  Level FlightAware Approximate
05:24AM 21.8368 -79.1310 181° South  Level FlightAware Approximate
05:25AM 21.7207 -79.1343 182° South  Level FlightAware Approximate
05:26AM 21.6046 -79.1382 182° South  Level FlightAware Approximate
05:27AM 21.4885 -79.1421 182° South  Level FlightAware Approximate
05:28AM 21.3725 -79.1459 182° South  Level FlightAware Approximate
05:29AM 21.2564 -79.1498 182° South  Level FlightAware Approximate
05:30AM 21.1403 -79.1500 180° South  Level FlightAware Approximate
05:31AM 21.0242 -79.1500 180° South  Level FlightAware Approximate
05:32AM 20.9082 -79.1561 184° South  Level FlightAware Approximate
05:33AM 20.7923 -79.1638 184° South  Level FlightAware Approximate
05:34AM 20.6763 -79.1683 181° South  Level FlightAware Approximate
05:35AM 20.5602 -79.1709 181° South  Level FlightAware Approximate
05:36AM 20.4441 -79.1735 181° South  Level FlightAware Approximate
05:37AM 20.3280 -79.1761 181° South  Level FlightAware Approximate
05:38AM 20.2119 -79.1786 181° South  Level FlightAware Approximate
05:39AM 20.0958 -79.1812 181° South  Level FlightAware Approximate
05:40AM 19.9797 -79.1840 182° South  Level FlightAware Approximate
05:41AM 19.8636 -79.1875 182° South  Level FlightAware Approximate
05:42AM 19.7475 -79.1911 182° South  Level FlightAware Approximate
05:43AM 19.6315 -79.1947 182° South  Level FlightAware Approximate
05:44AM 19.5154 -79.1982 182° South  Level FlightAware Approximate
05:45AM 19.3993 -79.2018 182° South  Level FlightAware Approximate
05:46AM 19.2832 -79.2054 182° South  Level FlightAware Approximate
05:47AM 19.1672 -79.2089 182° South  Level FlightAware Approximate
05:48AM 19.0511 -79.2125 182° South  Level FlightAware Approximate
05:49AM 18.9350 -79.2160 182° South  Level FlightAware Approximate
05:50AM 18.8189 -79.2195 182° South  Level FlightAware Approximate
05:51AM 18.7029 -79.2231 182° South  Level FlightAware Approximate
05:52AM 18.5868 -79.2266 182° South  Level FlightAware Approximate
05:53AM 18.4707 -79.2301 182° South  Level FlightAware Approximate
05:54AM 18.3546 -79.2336 182° South  Level FlightAware Approximate
05:55AM 18.2385 -79.2371 182° South  Level FlightAware Approximate
05:56AM 18.1225 -79.2406 182° South  Level FlightAware Approximate
05:57AM 18.0064 -79.2441 182° South  Level FlightAware Approximate
05:58AM 17.8903 -79.2476 182° South  Level FlightAware Approximate
05:59AM 17.7742 -79.2511 182° South  Level FlightAware Approximate
06:00AM 17.6582 -79.2546 182° South  Level FlightAware Approximate
06:01AM 17.5421 -79.2581 182° South  Level FlightAware Approximate
06:02AM 17.4260 -79.2616 182° South  Level FlightAware Approximate
06:03AM 17.3099 -79.2651 182° South  Level FlightAware Approximate
06:04AM 17.1938 -79.2685 182° South  Level FlightAware Approximate
06:05AM 17.0778 -79.2720 182° South  Level FlightAware Approximate
06:06AM 16.9617 -79.2755 182° South  Level FlightAware Approximate
06:07AM 16.8456 -79.2789 182° South  Level FlightAware Approximate
06:08AM 16.7295 -79.2824 182° South  Level FlightAware Approximate
06:09AM 16.6135 -79.2858 182° South  Level FlightAware Approximate
06:10AM 16.4974 -79.2893 182° South  Level FlightAware Approximate
06:11AM 16.3813 -79.2927 182° South  Level FlightAware Approximate
06:12AM 16.2652 -79.2961 182° South  Level FlightAware Approximate
06:13AM 16.1492 -79.2996 182° South  Level FlightAware Approximate
06:14AM 16.0331 -79.3030 182° South  Level FlightAware Approximate
06:15AM 15.9170 -79.3064 182° South  Level FlightAware Approximate
06:16AM 15.8009 -79.3098 182° South  Level FlightAware Approximate
06:17AM 15.6848 -79.3133 182° South  Level FlightAware Approximate
06:18AM 15.5688 -79.3167 182° South  Level FlightAware Approximate
06:19AM 15.4527 -79.3201 182° South  Level FlightAware Approximate
06:20AM 15.3366 -79.3235 182° South  Level FlightAware Approximate
06:21AM 15.2205 -79.3269 182° South  Level FlightAware Approximate
06:22AM 15.1045 -79.3303 182° South  Level FlightAware Approximate
06:23AM 14.9884 -79.3336 181° South  Level FlightAware Approximate
06:24AM 14.8723 -79.3368 181° South  Level FlightAware Approximate
06:25AM 14.7562 -79.3399 181° South  Level FlightAware Approximate
06:26AM 14.6401 -79.3430 181° South  Level FlightAware Approximate
06:27AM 14.5240 -79.3461 181° South  Level FlightAware Approximate
06:28AM 14.4080 -79.3492 181° South  Level FlightAware Approximate
06:29AM 14.2919 -79.3523 181° South  Level FlightAware Approximate
06:30AM 14.1758 -79.3553 181° South  Level FlightAware Approximate
06:31AM 14.0597 -79.3584 181° South  Level FlightAware Approximate
06:32AM 13.9436 -79.3615 181° South  Level FlightAware Approximate
06:33AM 13.8275 -79.3646 181° South  Level FlightAware Approximate
06:34AM 13.7114 -79.3677 181° South  Level FlightAware Approximate
06:35AM 13.5953 -79.3708 181° South  Level FlightAware Approximate
06:36AM 13.4793 -79.3738 181° South  Level FlightAware Approximate
06:37AM 13.3632 -79.3769 181° South  Level FlightAware Approximate
06:38AM 13.2471 -79.3800 181° South  Level FlightAware Approximate
06:39AM 13.1310 -79.3830 181° South  Level FlightAware Approximate
06:40AM 13.0149 -79.3861 181° South  Level FlightAware Approximate
06:41AM 12.8988 -79.3892 181° South  Level FlightAware Approximate
06:42AM 12.7827 -79.3922 181° South  Level FlightAware Approximate
06:43AM 12.6667 -79.3953 181° South  Level FlightAware Approximate
06:44AM 12.5506 -79.3983 181° South  Level FlightAware Approximate
06:45AM 12.4345 -79.4014 181° South  Level FlightAware Approximate
06:46AM 12.3184 -79.4044 181° South  Level FlightAware Approximate
06:47AM 12.2023 -79.4074 181° South  Level FlightAware Approximate
06:48AM 12.0862 -79.4105 181° South  Level FlightAware Approximate
06:49AM 11.9701 -79.4135 181° South  Level FlightAware Approximate
06:50AM 11.8540 -79.4166 181° South  Level FlightAware Approximate
06:51AM 11.7380 -79.4218 183° South  Level FlightAware Approximate
06:51AM 10.3470 -79.4756 184° South 505 581 30,700  Level FlightAware ADS-B
06:52AM 11.6220 -79.4270 183° South  Level FlightAware Approximate
06:52AM 10.2852 -79.4794 184° South 502 578 29,200  Level FlightAware ADS-B
06:53AM 10.1426 -79.4873 184° South 480 552 26,600 -2,804 Descending FlightAware ADS-B
06:53AM 10.0707 -79.4912 184° South 480 552 24,900 -2,459 Descending FlightAware ADS-B
06:54AM 10.0148 -79.4942 184° South 480 552 24,100 -1,552 Descending FlightAware ADS-B
06:54AM 9.9522 -79.4978 184° South 424 488 23,400 -1,869 Descending FlightAware ADS-B
06:55AM 9.8908 -79.5001 177° South 413 475 22,200 -2,308 Descending FlightAware ADS-B
06:55AM 9.8509 -79.4941 166° South 405 466 21,400 -2,353 Descending FlightAware ADS-B
06:56AM 9.8009 -79.4749 155° Southeast 395 455 20,200 -2,483 Descending FlightAware ADS-B
06:56AM 9.7561 -79.4547 155° Southeast 393 452 19,000 -2,333 Descending FlightAware ADS-B
06:56AM 9.7115 -79.4343 155° Southeast 385 443 18,100 -2,100 Descending FlightAware ADS-B
06:57AM 9.6561 -79.4092 155° Southeast 374 430 16,900 -2,105 Descending FlightAware ADS-B
06:57AM 9.6223 -79.3939 155° Southeast 367 422 16,100 -1,533 Descending FlightAware ADS-B
06:58AM 9.5175 -79.3639 171° South 323 372 14,600 -1,052 Descending FlightAware ADS-B
06:59AM 9.4761 -79.3581 171° South 286 329 14,400 -628 Descending FlightAware ADS-B
07:00AM 9.4082 -79.3485 171° South 260 299 13,700 -1,024 Descending FlightAware ADS-B
07:00AM 9.3786 -79.3445 172° South 265 305 13,000 -1,193 Descending FlightAware ADS-B
07:03AM 9.1932 -79.3184 172° South 254 292 10,100 -883 Descending FlightAware ADS-B
07:07AM 8.9023 -79.3606 208° Southwest 230 265 6,700 -742 Descending FlightAware ADS-B
07:08AM 9.0714 -79.3835 166° South  Level Estimated
07:08AM 8.8783 -79.3733 208° Southwest 228 262 6,400  Level FlightAware ADS-B
07:08AM 8.8635 -79.3812 209° Southwest 227 261 6,200 -828 Descending FlightAware ADS-B
07:08AM 8.8500 -79.3882 208° Southwest 230 265 6,000 -1,034 Descending FlightAware ADS-B
07:09AM 8.8335 -79.3965 207° Southwest 234 269 5,700 -1,000 Descending FlightAware ADS-B
07:09AM 8.8213 -79.4024 206° Southwest 236 272 5,500 -923 Descending FlightAware ADS-B
07:09AM 8.8106 -79.4086 215° Southwest 230 265 5,300 -1,059 Descending FlightAware ADS-B
07:09AM 8.8070 -79.4123 228° Southwest 224 258 5,200 -857 Descending FlightAware ADS-B
07:09AM 8.8024 -79.4206 250° West 215 247 5,100 -823 Descending FlightAware ADS-B
07:11AM 8.8237 -79.4912 293° West 187 215 3,500 -831 Descending FlightAware ADS-B
07:12AM 8.8372 -79.4880 13° North 175 201 3,300 -581 Descending FlightAware ADS-B
07:12AM 8.8494 -79.4852 13° North 176 203 3,200 -600 Descending FlightAware ADS-B
07:12AM 8.8610 -79.4825 12° North 178 205 3,000 -712 Descending FlightAware ADS-B
07:13AM 8.8961 -79.4722 25° Northeast 173 199 2,500 -800 Descending FlightAware ADS-B
07:13AM 8.9071 -79.4669 25° Northeast 174 200 2,200 -968 Descending FlightAware ADS-B
07:13AM 8.9178 -79.4618 26° Northeast 174 200 2,000 -857 Descending FlightAware ADS-B
07:14AM 8.9294 -79.4561 26° Northeast 172 198 1,700 -450 Descending FlightAware ADS-B
07:14AM 8.9466 -79.4491 21° North 157 181 1,700  Level FlightAware ADS-B
07:14AM 8.9578 -79.4440 24° Northeast 150 173 1,700 -222 Level FlightAware ADS-B
07:15AM 8.9794 -79.4319 33° Northeast 150 173 1,500 -545 Descending FlightAware ADS-B
07:15AM 8.9860 -79.4275 32° Northeast 145 167 1,200 -732 Descending FlightAware ADS-B
07:16AM 9.0023 -79.4181 27° Northeast 146 168 1,000 -667 Descending FlightAware ADS-B
07:16AM 9.0113 -79.4134 28° Northeast 147 169 800 -735 Descending FlightAware ADS-B
07:16AM 9.0319 -79.4015 28° Northeast 148 170 400 -706 Descending FlightAware ADS-B
07:19AM 9.0667 -79.3667 166° South  Level FlightAware Approximate
07:20AM 9.0714 -79.3835 166° South  Level Estimated
07:21AM 9.0714 -79.3835 166° South  Level Estimated
07:22AM 9.0714 -79.3835 166° South  Level Estimated
07:23AM 9.0714 -79.3835 166° South  Level Estimated